sensor_id;sensor_type;location;lat;lon;timestamp;P1;durP1;ratioP1;P2;durP2;ratioP2
72895;SDS011;61036;53.224;6.554;2022-10-16T00:01:16;6.73;;;2.13;;
72895;SDS011;61036;53.224;6.554;2022-10-16T00:03:43;7.80;;;2.33;;
72895;SDS011;61036;53.224;6.554;2022-10-16T00:06:09;5.70;;;1.77;;
72895;SDS011;61036;53.224;6.554;2022-10-16T00:08:36;4.63;;;1.90;;
72895;SDS011;61036;53.224;6.554;2022-10-16T00:11:08;5.47;;;2.07;;
72895;SDS011;61036;53.224;6.554;2022-10-16T00:13:36;4.57;;;1.80;;
72895;SDS011;61036;53.224;6.554;2022-10-16T00:16:03;5.87;;;1.90;;
72895;SDS011;61036;53.224;6.554;2022-10-16T00:18:29;7.87;;;2.30;;
72895;SDS011;61036;53.224;6.554;2022-10-16T00:20:55;6.67;;;2.40;;
72895;SDS011;61036;53.224;6.554;2022-10-16T00:23:26;6.13;;;1.97;;
72895;SDS011;61036;53.224;6.554;2022-10-16T00:25:58;5.63;;;1.83;;
72895;SDS011;61036;53.224;6.554;2022-10-16T00:28:25;7.67;;;2.20;;
72895;SDS011;61036;53.224;6.554;2022-10-16T00:30:51;7.80;;;2.10;;
72895;SDS011;61036;53.224;6.554;2022-10-16T00:33:17;6.87;;;2.30;;
72895;SDS011;61036;53.224;6.554;2022-10-16T00:35:43;8.40;;;1.90;;
72895;SDS011;61036;53.224;6.554;2022-10-16T00:38:09;6.63;;;2.17;;
72895;SDS011;61036;53.224;6.554;2022-10-16T00:40:34;12.73;;;2.63;;
72895;SDS011;61036;53.224;6.554;2022-10-16T00:43:00;5.93;;;1.90;;
72895;SDS011;61036;53.224;6.554;2022-10-16T00:45:25;5.70;;;1.80;;
72895;SDS011;61036;53.224;6.554;2022-10-16T00:47:52;5.27;;;1.90;;
72895;SDS011;61036;53.224;6.554;2022-10-16T00:50:26;6.20;;;2.33;;
72895;SDS011;61036;53.224;6.554;2022-10-16T00:52:55;5.87;;;1.70;;
72895;SDS011;61036;53.224;6.554;2022-10-16T00:55:22;7.93;;;1.97;;
72895;SDS011;61036;53.224;6.554;2022-10-16T00:57:50;8.60;;;2.30;;
72895;SDS011;61036;53.224;6.554;2022-10-16T01:00:18;7.37;;;2.10;;
72895;SDS011;61036;53.224;6.554;2022-10-16T01:02:56;5.60;;;1.77;;
72895;SDS011;61036;53.224;6.554;2022-10-16T01:05:33;7.53;;;1.93;;
72895;SDS011;61036;53.224;6.554;2022-10-16T01:08:49;4.53;;;1.70;;
72895;SDS011;61036;53.224;6.554;2022-10-16T01:14:26;9.83;;;1.90;;
72895;SDS011;61036;53.224;6.554;2022-10-16T01:16:59;7.27;;;1.97;;
72895;SDS011;61036;53.224;6.554;2022-10-16T01:19:36;7.47;;;1.93;;
72895;SDS011;61036;53.224;6.554;2022-10-16T01:22:13;6.20;;;1.80;;
72895;SDS011;61036;53.224;6.554;2022-10-16T01:24:40;4.00;;;1.60;;
72895;SDS011;61036;53.224;6.554;2022-10-16T01:32:33;7.80;;;1.67;;
72895;SDS011;61036;53.224;6.554;2022-10-16T01:35:18;5.23;;;1.60;;
72895;SDS011;61036;53.224;6.554;2022-10-16T01:40:26;7.40;;;1.70;;
72895;SDS011;61036;53.224;6.554;2022-10-16T01:42:59;3.47;;;1.53;;
72895;SDS011;61036;53.224;6.554;2022-10-16T01:45:28;4.80;;;1.90;;
72895;SDS011;61036;53.224;6.554;2022-10-16T01:47:56;6.00;;;1.97;;
72895;SDS011;61036;53.224;6.554;2022-10-16T01:50:25;4.63;;;1.70;;
72895;SDS011;61036;53.224;6.554;2022-10-16T01:52:52;5.33;;;1.60;;
72895;SDS011;61036;53.224;6.554;2022-10-16T01:55:29;7.40;;;1.80;;
72895;SDS011;61036;53.224;6.554;2022-10-16T01:57:59;3.37;;;1.40;;
72895;SDS011;61036;53.224;6.554;2022-10-16T02:00:28;6.23;;;2.13;;
72895;SDS011;61036;53.224;6.554;2022-10-16T02:02:54;5.10;;;1.73;;
72895;SDS011;61036;53.224;6.554;2022-10-16T02:05:26;5.63;;;1.80;;
72895;SDS011;61036;53.224;6.554;2022-10-16T02:07:56;6.47;;;2.10;;
72895;SDS011;61036;53.224;6.554;2022-10-16T02:10:21;4.33;;;1.60;;
72895;SDS011;61036;53.224;6.554;2022-10-16T02:12:53;3.47;;;1.53;;
72895;SDS011;61036;53.224;6.554;2022-10-16T02:15:27;5.47;;;2.40;;
72895;SDS011;61036;53.224;6.554;2022-10-16T02:17:55;5.13;;;1.67;;
72895;SDS011;61036;53.224;6.554;2022-10-16T02:20:22;3.67;;;1.23;;
72895;SDS011;61036;53.224;6.554;2022-10-16T02:22:52;3.63;;;1.50;;
72895;SDS011;61036;53.224;6.554;2022-10-16T02:28:07;6.40;;;1.70;;
72895;SDS011;61036;53.224;6.554;2022-10-16T02:33:13;4.33;;;1.40;;
72895;SDS011;61036;53.224;6.554;2022-10-16T02:35:41;4.63;;;1.53;;
72895;SDS011;61036;53.224;6.554;2022-10-16T02:38:12;5.80;;;1.73;;
72895;SDS011;61036;53.224;6.554;2022-10-16T02:40:40;3.57;;;1.40;;
72895;SDS011;61036;53.224;6.554;2022-10-16T02:43:07;6.10;;;1.63;;
72895;SDS011;61036;53.224;6.554;2022-10-16T02:45:34;4.87;;;1.67;;
72895;SDS011;61036;53.224;6.554;2022-10-16T02:48:00;6.63;;;2.30;;
72895;SDS011;61036;53.224;6.554;2022-10-16T02:50:26;3.37;;;1.40;;
72895;SDS011;61036;53.224;6.554;2022-10-16T02:52:52;4.27;;;1.50;;
72895;SDS011;61036;53.224;6.554;2022-10-16T02:55:18;5.50;;;1.60;;
72895;SDS011;61036;53.224;6.554;2022-10-16T02:57:43;5.97;;;1.77;;
72895;SDS011;61036;53.224;6.554;2022-10-16T03:00:09;5.07;;;1.63;;
72895;SDS011;61036;53.224;6.554;2022-10-16T03:02:38;3.60;;;1.60;;
72895;SDS011;61036;53.224;6.554;2022-10-16T03:05:04;3.47;;;1.57;;
72895;SDS011;61036;53.224;6.554;2022-10-16T03:07:30;4.37;;;1.83;;
72895;SDS011;61036;53.224;6.554;2022-10-16T03:09:56;6.13;;;1.77;;
72895;SDS011;61036;53.224;6.554;2022-10-16T03:12:21;4.73;;;1.70;;
72895;SDS011;61036;53.224;6.554;2022-10-16T03:14:48;5.30;;;1.37;;
72895;SDS011;61036;53.224;6.554;2022-10-16T03:17:16;5.97;;;1.90;;
72895;SDS011;61036;53.224;6.554;2022-10-16T03:19:42;5.10;;;1.80;;
72895;SDS011;61036;53.224;6.554;2022-10-16T03:22:07;4.23;;;1.30;;
72895;SDS011;61036;53.224;6.554;2022-10-16T03:24:33;3.13;;;1.50;;
72895;SDS011;61036;53.224;6.554;2022-10-16T03:26:59;4.07;;;1.50;;
72895;SDS011;61036;53.224;6.554;2022-10-16T03:29:25;5.30;;;1.53;;
72895;SDS011;61036;53.224;6.554;2022-10-16T03:31:52;5.17;;;1.70;;
72895;SDS011;61036;53.224;6.554;2022-10-16T03:34:20;3.60;;;1.43;;
72895;SDS011;61036;53.224;6.554;2022-10-16T03:36:46;3.50;;;1.50;;
72895;SDS011;61036;53.224;6.554;2022-10-16T03:39:12;3.30;;;1.50;;
72895;SDS011;61036;53.224;6.554;2022-10-16T03:41:38;3.87;;;1.40;;
72895;SDS011;61036;53.224;6.554;2022-10-16T03:44:03;4.80;;;1.70;;
72895;SDS011;61036;53.224;6.554;2022-10-16T03:46:29;4.80;;;1.67;;
72895;SDS011;61036;53.224;6.554;2022-10-16T03:48:57;6.30;;;1.97;;
72895;SDS011;61036;53.224;6.554;2022-10-16T03:51:23;3.03;;;1.40;;
72895;SDS011;61036;53.224;6.554;2022-10-16T03:53:48;4.77;;;1.60;;
72895;SDS011;61036;53.224;6.554;2022-10-16T03:56:15;4.50;;;1.77;;
72895;SDS011;61036;53.224;6.554;2022-10-16T03:58:40;4.67;;;1.57;;
72895;SDS011;61036;53.224;6.554;2022-10-16T04:01:08;4.50;;;1.80;;
72895;SDS011;61036;53.224;6.554;2022-10-16T04:03:34;2.40;;;1.30;;
72895;SDS011;61036;53.224;6.554;2022-10-16T04:06:00;5.23;;;1.83;;
72895;SDS011;61036;53.224;6.554;2022-10-16T04:08:25;4.13;;;1.63;;
72895;SDS011;61036;53.224;6.554;2022-10-16T04:10:51;3.07;;;1.50;;
72895;SDS011;61036;53.224;6.554;2022-10-16T04:13:19;4.80;;;1.50;;
72895;SDS011;61036;53.224;6.554;2022-10-16T04:15:44;5.33;;;1.60;;
72895;SDS011;61036;53.224;6.554;2022-10-16T04:18:10;6.33;;;1.90;;
72895;SDS011;61036;53.224;6.554;2022-10-16T04:20:36;3.60;;;1.60;;
72895;SDS011;61036;53.224;6.554;2022-10-16T04:23:03;5.73;;;2.10;;
72895;SDS011;61036;53.224;6.554;2022-10-16T04:25:28;3.40;;;1.80;;
72895;SDS011;61036;53.224;6.554;2022-10-16T04:27:56;5.17;;;1.90;;
72895;SDS011;61036;53.224;6.554;2022-10-16T04:30:22;5.27;;;1.73;;
72895;SDS011;61036;53.224;6.554;2022-10-16T04:32:51;4.40;;;1.50;;
72895;SDS011;61036;53.224;6.554;2022-10-16T04:35:18;4.67;;;1.80;;
72895;SDS011;61036;53.224;6.554;2022-10-16T04:37:44;4.20;;;1.93;;
72895;SDS011;61036;53.224;6.554;2022-10-16T04:40:10;6.00;;;1.90;;
72895;SDS011;61036;53.224;6.554;2022-10-16T04:42:36;4.93;;;1.90;;
72895;SDS011;61036;53.224;6.554;2022-10-16T04:45:02;3.73;;;1.80;;
72895;SDS011;61036;53.224;6.554;2022-10-16T04:47:29;3.17;;;1.60;;
72895;SDS011;61036;53.224;6.554;2022-10-16T04:49:54;5.27;;;2.00;;
72895;SDS011;61036;53.224;6.554;2022-10-16T04:52:22;5.20;;;2.00;;
72895;SDS011;61036;53.224;6.554;2022-10-16T04:54:49;6.43;;;1.73;;
72895;SDS011;61036;53.224;6.554;2022-10-16T04:57:15;5.63;;;2.23;;
72895;SDS011;61036;53.224;6.554;2022-10-16T04:59:41;5.80;;;1.90;;
72895;SDS011;61036;53.224;6.554;2022-10-16T05:02:07;7.47;;;2.33;;
72895;SDS011;61036;53.224;6.554;2022-10-16T05:04:32;5.67;;;1.80;;
72895;SDS011;61036;53.224;6.554;2022-10-16T05:06:58;5.63;;;2.10;;
72895;SDS011;61036;53.224;6.554;2022-10-16T05:09:24;5.23;;;1.87;;
72895;SDS011;61036;53.224;6.554;2022-10-16T05:11:51;3.90;;;1.90;;
72895;SDS011;61036;53.224;6.554;2022-10-16T05:14:17;6.43;;;1.70;;
72895;SDS011;61036;53.224;6.554;2022-10-16T05:16:43;5.50;;;1.83;;
72895;SDS011;61036;53.224;6.554;2022-10-16T05:19:09;5.23;;;2.00;;
72895;SDS011;61036;53.224;6.554;2022-10-16T05:21:35;5.13;;;2.20;;
72895;SDS011;61036;53.224;6.554;2022-10-16T05:24:00;5.43;;;1.77;;
72895;SDS011;61036;53.224;6.554;2022-10-16T05:26:28;5.70;;;2.27;;
72895;SDS011;61036;53.224;6.554;2022-10-16T05:28:55;7.07;;;2.27;;
72895;SDS011;61036;53.224;6.554;2022-10-16T05:31:21;4.50;;;2.10;;
72895;SDS011;61036;53.224;6.554;2022-10-16T05:33:47;4.83;;;1.93;;
72895;SDS011;61036;53.224;6.554;2022-10-16T05:36:13;6.00;;;2.30;;
72895;SDS011;61036;53.224;6.554;2022-10-16T05:38:40;5.97;;;2.20;;
72895;SDS011;61036;53.224;6.554;2022-10-16T05:41:05;6.97;;;2.20;;
72895;SDS011;61036;53.224;6.554;2022-10-16T05:43:31;5.23;;;2.23;;
72895;SDS011;61036;53.224;6.554;2022-10-16T05:45:58;4.87;;;2.07;;
72895;SDS011;61036;53.224;6.554;2022-10-16T05:48:33;7.73;;;2.60;;
72895;SDS011;61036;53.224;6.554;2022-10-16T05:51:00;4.43;;;1.80;;
72895;SDS011;61036;53.224;6.554;2022-10-16T05:53:31;5.77;;;2.47;;
72895;SDS011;61036;53.224;6.554;2022-10-16T05:55:58;6.17;;;2.60;;
72895;SDS011;61036;53.224;6.554;2022-10-16T05:58:27;4.23;;;2.23;;
72895;SDS011;61036;53.224;6.554;2022-10-16T06:00:55;4.60;;;2.33;;
72895;SDS011;61036;53.224;6.554;2022-10-16T06:03:25;6.47;;;2.60;;
72895;SDS011;61036;53.224;6.554;2022-10-16T06:05:51;5.53;;;2.80;;
72895;SDS011;61036;53.224;6.554;2022-10-16T06:08:17;5.70;;;2.83;;
72895;SDS011;61036;53.224;6.554;2022-10-16T06:10:44;7.73;;;2.70;;
72895;SDS011;61036;53.224;6.554;2022-10-16T06:13:11;9.37;;;3.10;;
72895;SDS011;61036;53.224;6.554;2022-10-16T06:15:37;5.53;;;2.83;;
72895;SDS011;61036;53.224;6.554;2022-10-16T06:18:04;5.03;;;2.70;;
72895;SDS011;61036;53.224;6.554;2022-10-16T06:20:30;7.17;;;2.70;;
72895;SDS011;61036;53.224;6.554;2022-10-16T06:22:56;6.77;;;3.07;;
72895;SDS011;61036;53.224;6.554;2022-10-16T06:25:22;6.33;;;2.60;;
72895;SDS011;61036;53.224;6.554;2022-10-16T06:27:48;8.40;;;2.93;;
72895;SDS011;61036;53.224;6.554;2022-10-16T06:30:14;8.30;;;3.17;;
72895;SDS011;61036;53.224;6.554;2022-10-16T06:32:39;6.87;;;2.60;;
72895;SDS011;61036;53.224;6.554;2022-10-16T06:35:05;7.90;;;3.20;;
72895;SDS011;61036;53.224;6.554;2022-10-16T06:37:34;7.53;;;2.87;;
72895;SDS011;61036;53.224;6.554;2022-10-16T06:39:59;6.47;;;2.80;;
72895;SDS011;61036;53.224;6.554;2022-10-16T06:42:25;6.07;;;3.20;;
72895;SDS011;61036;53.224;6.554;2022-10-16T06:44:51;7.50;;;3.37;;
72895;SDS011;61036;53.224;6.554;2022-10-16T06:47:17;6.47;;;2.87;;
72895;SDS011;61036;53.224;6.554;2022-10-16T06:49:43;6.17;;;2.80;;
72895;SDS011;61036;53.224;6.554;2022-10-16T06:52:08;6.03;;;2.90;;
72895;SDS011;61036;53.224;6.554;2022-10-16T06:54:35;8.03;;;2.83;;
72895;SDS011;61036;53.224;6.554;2022-10-16T06:57:03;9.20;;;3.13;;
72895;SDS011;61036;53.224;6.554;2022-10-16T06:59:28;7.93;;;2.80;;
72895;SDS011;61036;53.224;6.554;2022-10-16T07:01:54;5.67;;;2.57;;
72895;SDS011;61036;53.224;6.554;2022-10-16T07:04:19;6.20;;;2.53;;
72895;SDS011;61036;53.224;6.554;2022-10-16T07:06:45;7.47;;;2.60;;
72895;SDS011;61036;53.224;6.554;2022-10-16T07:09:11;9.40;;;2.70;;
72895;SDS011;61036;53.224;6.554;2022-10-16T07:11:38;7.27;;;2.70;;
72895;SDS011;61036;53.224;6.554;2022-10-16T07:14:05;6.87;;;2.63;;
72895;SDS011;61036;53.224;6.554;2022-10-16T07:16:40;8.40;;;2.80;;
72895;SDS011;61036;53.224;6.554;2022-10-16T07:19:06;5.23;;;2.27;;
72895;SDS011;61036;53.224;6.554;2022-10-16T07:21:34;5.90;;;2.40;;
72895;SDS011;61036;53.224;6.554;2022-10-16T07:24:05;7.63;;;2.37;;
72895;SDS011;61036;53.224;6.554;2022-10-16T07:26:34;7.63;;;2.43;;
72895;SDS011;61036;53.224;6.554;2022-10-16T07:29:00;5.70;;;2.60;;
72895;SDS011;61036;53.224;6.554;2022-10-16T07:31:26;6.00;;;2.50;;
72895;SDS011;61036;53.224;6.554;2022-10-16T07:33:53;7.43;;;2.53;;
72895;SDS011;61036;53.224;6.554;2022-10-16T07:36:20;5.80;;;2.10;;
72895;SDS011;61036;53.224;6.554;2022-10-16T07:38:46;5.23;;;2.40;;
72895;SDS011;61036;53.224;6.554;2022-10-16T07:41:13;6.20;;;2.37;;
72895;SDS011;61036;53.224;6.554;2022-10-16T07:43:45;8.53;;;2.77;;
72895;SDS011;61036;53.224;6.554;2022-10-16T07:46:14;7.47;;;2.40;;
72895;SDS011;61036;53.224;6.554;2022-10-16T07:48:41;7.03;;;2.50;;
72895;SDS011;61036;53.224;6.554;2022-10-16T07:51:13;5.83;;;2.70;;
72895;SDS011;61036;53.224;6.554;2022-10-16T07:53:46;7.27;;;2.50;;
72895;SDS011;61036;53.224;6.554;2022-10-16T07:56:15;8.17;;;2.70;;
72895;SDS011;61036;53.224;6.554;2022-10-16T07:58:42;7.07;;;2.60;;
72895;SDS011;61036;53.224;6.554;2022-10-16T08:01:08;6.93;;;2.60;;
72895;SDS011;61036;53.224;6.554;2022-10-16T08:03:36;7.97;;;3.00;;
72895;SDS011;61036;53.224;6.554;2022-10-16T08:06:02;8.80;;;3.20;;
72895;SDS011;61036;53.224;6.554;2022-10-16T08:08:29;10.97;;;2.93;;
72895;SDS011;61036;53.224;6.554;2022-10-16T08:10:55;7.13;;;3.00;;
72895;SDS011;61036;53.224;6.554;2022-10-16T08:13:20;5.63;;;2.47;;
72895;SDS011;61036;53.224;6.554;2022-10-16T08:15:46;7.33;;;2.77;;
72895;SDS011;61036;53.224;6.554;2022-10-16T08:18:14;7.83;;;3.00;;
72895;SDS011;61036;53.224;6.554;2022-10-16T08:20:41;5.80;;;2.77;;
72895;SDS011;61036;53.224;6.554;2022-10-16T08:23:09;7.73;;;2.80;;
72895;SDS011;61036;53.224;6.554;2022-10-16T08:25:36;7.03;;;2.43;;
72895;SDS011;61036;53.224;6.554;2022-10-16T08:28:04;7.57;;;2.53;;
72895;SDS011;61036;53.224;6.554;2022-10-16T08:30:33;6.27;;;2.30;;
72895;SDS011;61036;53.224;6.554;2022-10-16T08:33:00;6.87;;;2.87;;
72895;SDS011;61036;53.224;6.554;2022-10-16T08:35:27;6.13;;;2.10;;
72895;SDS011;61036;53.224;6.554;2022-10-16T08:37:52;4.63;;;1.90;;
72895;SDS011;61036;53.224;6.554;2022-10-16T08:40:19;8.13;;;2.33;;
72895;SDS011;61036;53.224;6.554;2022-10-16T08:45:38;4.87;;;1.93;;
72895;SDS011;61036;53.224;6.554;2022-10-16T08:50:49;6.40;;;2.20;;
72895;SDS011;61036;53.224;6.554;2022-10-16T08:53:22;4.87;;;1.80;;
72895;SDS011;61036;53.224;6.554;2022-10-16T08:55:53;6.30;;;1.77;;
72895;SDS011;61036;53.224;6.554;2022-10-16T08:58:20;6.80;;;1.90;;
72895;SDS011;61036;53.224;6.554;2022-10-16T09:00:59;8.73;;;1.67;;
72895;SDS011;61036;53.224;6.554;2022-10-16T09:06:16;5.40;;;2.20;;
72895;SDS011;61036;53.224;6.554;2022-10-16T09:11:59;10.97;;;2.57;;
72895;SDS011;61036;53.224;6.554;2022-10-16T09:14:40;5.93;;;1.80;;
72895;SDS011;61036;53.224;6.554;2022-10-16T09:20:03;8.23;;;2.00;;
72895;SDS011;61036;53.224;6.554;2022-10-16T09:22:49;8.13;;;2.03;;
72895;SDS011;61036;53.224;6.554;2022-10-16T09:25:34;6.57;;;1.77;;
72895;SDS011;61036;53.224;6.554;2022-10-16T09:28:03;6.83;;;1.83;;
72895;SDS011;61036;53.224;6.554;2022-10-16T09:30:29;7.17;;;2.00;;
72895;SDS011;61036;53.224;6.554;2022-10-16T09:32:57;7.07;;;2.00;;
72895;SDS011;61036;53.224;6.554;2022-10-16T09:35:31;6.67;;;2.10;;
72895;SDS011;61036;53.224;6.554;2022-10-16T09:38:01;7.93;;;1.80;;
72895;SDS011;61036;53.224;6.554;2022-10-16T09:40:31;7.13;;;2.03;;
72895;SDS011;61036;53.224;6.554;2022-10-16T09:43:14;9.90;;;2.20;;
72895;SDS011;61036;53.224;6.554;2022-10-16T09:45:54;9.30;;;2.40;;
72895;SDS011;61036;53.224;6.554;2022-10-16T09:48:27;6.30;;;1.80;;
72895;SDS011;61036;53.224;6.554;2022-10-16T09:50:58;11.67;;;2.30;;
72895;SDS011;61036;53.224;6.554;2022-10-16T09:53:26;8.77;;;2.30;;
72895;SDS011;61036;53.224;6.554;2022-10-16T09:56:05;8.33;;;1.90;;
72895;SDS011;61036;53.224;6.554;2022-10-16T09:58:32;7.57;;;1.80;;
72895;SDS011;61036;53.224;6.554;2022-10-16T10:00:59;10.90;;;2.70;;
72895;SDS011;61036;53.224;6.554;2022-10-16T10:06:17;7.53;;;2.00;;
72895;SDS011;61036;53.224;6.554;2022-10-16T10:16:50;13.53;;;2.87;;
72895;SDS011;61036;53.224;6.554;2022-10-16T10:19:21;12.60;;;2.57;;
72895;SDS011;61036;53.224;6.554;2022-10-16T10:21:48;12.03;;;2.70;;
72895;SDS011;61036;53.224;6.554;2022-10-16T10:24:17;10.43;;;2.67;;
72895;SDS011;61036;53.224;6.554;2022-10-16T10:26:54;10.70;;;2.53;;
72895;SDS011;61036;53.224;6.554;2022-10-16T10:34:52;11.50;;;2.53;;
72895;SDS011;61036;53.224;6.554;2022-10-16T10:38:05;9.23;;;2.23;;
72895;SDS011;61036;53.224;6.554;2022-10-16T10:40:43;10.77;;;2.40;;
72895;SDS011;61036;53.224;6.554;2022-10-16T10:46:02;14.63;;;2.67;;
72895;SDS011;61036;53.224;6.554;2022-10-16T10:48:38;9.83;;;2.57;;
72895;SDS011;61036;53.224;6.554;2022-10-16T10:54:06;10.50;;;2.13;;
72895;SDS011;61036;53.224;6.554;2022-10-16T10:56:42;12.93;;;2.40;;
72895;SDS011;61036;53.224;6.554;2022-10-16T11:02:04;12.57;;;2.73;;
72895;SDS011;61036;53.224;6.554;2022-10-16T11:07:52;13.37;;;2.80;;
72895;SDS011;61036;53.224;6.554;2022-10-16T11:16:17;10.70;;;2.40;;
72895;SDS011;61036;53.224;6.554;2022-10-16T11:21:56;12.40;;;2.30;;
72895;SDS011;61036;53.224;6.554;2022-10-16T11:24:37;10.40;;;2.33;;
72895;SDS011;61036;53.224;6.554;2022-10-16T11:27:12;14.60;;;2.60;;
72895;SDS011;61036;53.224;6.554;2022-10-16T11:29:44;10.77;;;2.70;;
72895;SDS011;61036;53.224;6.554;2022-10-16T11:32:22;10.63;;;2.77;;
72895;SDS011;61036;53.224;6.554;2022-10-16T11:34:56;11.23;;;2.50;;
72895;SDS011;61036;53.224;6.554;2022-10-16T11:37:26;9.80;;;2.37;;
72895;SDS011;61036;53.224;6.554;2022-10-16T11:43:04;10.47;;;2.50;;
72895;SDS011;61036;53.224;6.554;2022-10-16T11:45:36;9.40;;;2.33;;
72895;SDS011;61036;53.224;6.554;2022-10-16T11:51:25;12.03;;;2.27;;
72895;SDS011;61036;53.224;6.554;2022-10-16T11:56:48;12.53;;;2.43;;
72895;SDS011;61036;53.224;6.554;2022-10-16T11:59:24;11.93;;;2.10;;
72895;SDS011;61036;53.224;6.554;2022-10-16T12:02:15;9.43;;;2.30;;
72895;SDS011;61036;53.224;6.554;2022-10-16T12:08:06;9.37;;;2.47;;
72895;SDS011;61036;53.224;6.554;2022-10-16T12:10:36;10.63;;;2.63;;
72895;SDS011;61036;53.224;6.554;2022-10-16T12:13:49;10.50;;;2.40;;
72895;SDS011;61036;53.224;6.554;2022-10-16T12:15:52;11.13;;;2.73;;
72895;SDS011;61036;53.224;6.554;2022-10-16T12:18:28;10.07;;;2.60;;
72895;SDS011;61036;53.224;6.554;2022-10-16T12:20:55;8.57;;;2.13;;
72895;SDS011;61036;53.224;6.554;2022-10-16T12:23:30;9.47;;;2.93;;
72895;SDS011;61036;53.224;6.554;2022-10-16T12:26:00;13.10;;;2.73;;
72895;SDS011;61036;53.224;6.554;2022-10-16T12:28:28;7.93;;;2.13;;
72895;SDS011;61036;53.224;6.554;2022-10-16T12:31:01;10.30;;;2.10;;
72895;SDS011;61036;53.224;6.554;2022-10-16T12:33:29;9.50;;;2.17;;
72895;SDS011;61036;53.224;6.554;2022-10-16T12:35:57;10.00;;;2.10;;
72895;SDS011;61036;53.224;6.554;2022-10-16T12:38:28;10.17;;;2.20;;
72895;SDS011;61036;53.224;6.554;2022-10-16T12:41:03;10.07;;;2.53;;
72895;SDS011;61036;53.224;6.554;2022-10-16T12:48:35;13.93;;;2.77;;
72895;SDS011;61036;53.224;6.554;2022-10-16T12:51:12;10.87;;;2.53;;
72895;SDS011;61036;53.224;6.554;2022-10-16T12:53:57;11.17;;;2.70;;
72895;SDS011;61036;53.224;6.554;2022-10-16T12:56:34;13.83;;;2.50;;
72895;SDS011;61036;53.224;6.554;2022-10-16T13:08:09;11.50;;;2.60;;
72895;SDS011;61036;53.224;6.554;2022-10-16T13:29:29;11.83;;;2.80;;
72895;SDS011;61036;53.224;6.554;2022-10-16T13:31:57;9.87;;;2.23;;
72895;SDS011;61036;53.224;6.554;2022-10-16T13:34:24;11.87;;;2.30;;
72895;SDS011;61036;53.224;6.554;2022-10-16T13:36:51;8.20;;;2.23;;
72895;SDS011;61036;53.224;6.554;2022-10-16T13:44:45;6.17;;;2.13;;
72895;SDS011;61036;53.224;6.554;2022-10-16T13:47:18;9.13;;;2.17;;
72895;SDS011;61036;53.224;6.554;2022-10-16T13:50:02;8.77;;;1.90;;
72895;SDS011;61036;53.224;6.554;2022-10-16T13:52:29;9.13;;;2.50;;
72895;SDS011;61036;53.224;6.554;2022-10-16T13:54:55;13.80;;;2.40;;
72895;SDS011;61036;53.224;6.554;2022-10-16T13:57:23;8.27;;;2.00;;
72895;SDS011;61036;53.224;6.554;2022-10-16T13:59:50;16.30;;;3.30;;
72895;SDS011;61036;53.224;6.554;2022-10-16T14:02:25;11.07;;;2.97;;
72895;SDS011;61036;53.224;6.554;2022-10-16T14:04:54;13.60;;;2.57;;
72895;SDS011;61036;53.224;6.554;2022-10-16T14:07:27;10.70;;;2.43;;
72895;SDS011;61036;53.224;6.554;2022-10-16T14:09:56;10.80;;;2.33;;
72895;SDS011;61036;53.224;6.554;2022-10-16T14:12:26;9.97;;;2.40;;
72895;SDS011;61036;53.224;6.554;2022-10-16T14:14:54;10.87;;;2.70;;
72895;SDS011;61036;53.224;6.554;2022-10-16T14:17:27;12.10;;;2.40;;
72895;SDS011;61036;53.224;6.554;2022-10-16T14:19:58;9.63;;;1.90;;
72895;SDS011;61036;53.224;6.554;2022-10-16T14:24:53;10.53;;;2.70;;
72895;SDS011;61036;53.224;6.554;2022-10-16T14:27:56;11.73;;;2.80;;
72895;SDS011;61036;53.224;6.554;2022-10-16T14:30:22;10.17;;;2.73;;
72895;SDS011;61036;53.224;6.554;2022-10-16T14:32:55;9.50;;;2.53;;
72895;SDS011;61036;53.224;6.554;2022-10-16T14:35:27;11.77;;;2.83;;
72895;SDS011;61036;53.224;6.554;2022-10-16T14:38:14;11.50;;;2.37;;
72895;SDS011;61036;53.224;6.554;2022-10-16T14:40:46;14.63;;;2.57;;
72895;SDS011;61036;53.224;6.554;2022-10-16T14:43:14;18.07;;;5.70;;
72895;SDS011;61036;53.224;6.554;2022-10-16T14:45:50;10.30;;;2.80;;
72895;SDS011;61036;53.224;6.554;2022-10-16T14:48:18;10.93;;;3.10;;
72895;SDS011;61036;53.224;6.554;2022-10-16T14:50:44;10.87;;;2.90;;
72895;SDS011;61036;53.224;6.554;2022-10-16T14:53:13;11.80;;;4.57;;
72895;SDS011;61036;53.224;6.554;2022-10-16T14:55:39;12.70;;;2.83;;
72895;SDS011;61036;53.224;6.554;2022-10-16T14:58:10;10.83;;;2.57;;
72895;SDS011;61036;53.224;6.554;2022-10-16T15:00:40;9.37;;;2.50;;
72895;SDS011;61036;53.224;6.554;2022-10-16T15:03:06;9.97;;;2.40;;
72895;SDS011;61036;53.224;6.554;2022-10-16T15:05:32;10.60;;;2.87;;
72895;SDS011;61036;53.224;6.554;2022-10-16T15:07:57;10.83;;;2.30;;
72895;SDS011;61036;53.224;6.554;2022-10-16T15:10:24;10.60;;;2.50;;
72895;SDS011;61036;53.224;6.554;2022-10-16T15:12:51;10.90;;;3.00;;
72895;SDS011;61036;53.224;6.554;2022-10-16T15:17:55;18.37;;;7.90;;
72895;SDS011;61036;53.224;6.554;2022-10-16T15:20:26;12.10;;;3.53;;
72895;SDS011;61036;53.224;6.554;2022-10-16T15:22:59;12.93;;;6.67;;
72895;SDS011;61036;53.224;6.554;2022-10-16T15:25:42;13.73;;;5.23;;
72895;SDS011;61036;53.224;6.554;2022-10-16T15:28:11;10.23;;;4.10;;
72895;SDS011;61036;53.224;6.554;2022-10-16T15:30:37;10.03;;;3.13;;
72895;SDS011;61036;53.224;6.554;2022-10-16T15:33:04;11.43;;;3.03;;
72895;SDS011;61036;53.224;6.554;2022-10-16T15:35:35;9.53;;;2.93;;
72895;SDS011;61036;53.224;6.554;2022-10-16T15:38:01;10.20;;;3.23;;
72895;SDS011;61036;53.224;6.554;2022-10-16T15:40:27;11.63;;;3.33;;
72895;SDS011;61036;53.224;6.554;2022-10-16T15:42:53;10.03;;;2.67;;
72895;SDS011;61036;53.224;6.554;2022-10-16T15:45:22;8.10;;;2.33;;
72895;SDS011;61036;53.224;6.554;2022-10-16T15:47:48;8.10;;;2.43;;
72895;SDS011;61036;53.224;6.554;2022-10-16T15:50:14;8.00;;;2.53;;
72895;SDS011;61036;53.224;6.554;2022-10-16T15:52:40;8.80;;;2.57;;
72895;SDS011;61036;53.224;6.554;2022-10-16T15:55:10;10.03;;;3.00;;
72895;SDS011;61036;53.224;6.554;2022-10-16T15:57:38;10.70;;;3.10;;
72895;SDS011;61036;53.224;6.554;2022-10-16T16:00:10;10.20;;;4.20;;
72895;SDS011;61036;53.224;6.554;2022-10-16T16:02:40;11.23;;;3.77;;
72895;SDS011;61036;53.224;6.554;2022-10-16T16:05:07;8.73;;;3.03;;
72895;SDS011;61036;53.224;6.554;2022-10-16T16:07:34;12.60;;;2.93;;
72895;SDS011;61036;53.224;6.554;2022-10-16T16:10:02;10.73;;;2.80;;
72895;SDS011;61036;53.224;6.554;2022-10-16T16:12:29;9.33;;;2.73;;
72895;SDS011;61036;53.224;6.554;2022-10-16T16:14:57;8.70;;;2.70;;
72895;SDS011;61036;53.224;6.554;2022-10-16T16:17:30;8.60;;;2.40;;
72895;SDS011;61036;53.224;6.554;2022-10-16T16:19:57;8.23;;;2.67;;
72895;SDS011;61036;53.224;6.554;2022-10-16T16:22:25;8.20;;;2.60;;
72895;SDS011;61036;53.224;6.554;2022-10-16T16:24:50;8.97;;;3.33;;
72895;SDS011;61036;53.224;6.554;2022-10-16T16:27:17;9.40;;;3.70;;
72895;SDS011;61036;53.224;6.554;2022-10-16T16:29:42;8.87;;;2.40;;
72895;SDS011;61036;53.224;6.554;2022-10-16T16:32:08;10.47;;;2.83;;
72895;SDS011;61036;53.224;6.554;2022-10-16T16:34:33;10.27;;;2.60;;
72895;SDS011;61036;53.224;6.554;2022-10-16T16:37:01;10.00;;;2.47;;
72895;SDS011;61036;53.224;6.554;2022-10-16T16:39:27;14.33;;;3.73;;
72895;SDS011;61036;53.224;6.554;2022-10-16T16:41:54;8.97;;;2.80;;
72895;SDS011;61036;53.224;6.554;2022-10-16T16:44:20;10.37;;;2.87;;
72895;SDS011;61036;53.224;6.554;2022-10-16T16:46:46;8.30;;;3.13;;
72895;SDS011;61036;53.224;6.554;2022-10-16T16:49:12;10.23;;;4.10;;
72895;SDS011;61036;53.224;6.554;2022-10-16T16:51:39;9.43;;;3.80;;
72895;SDS011;61036;53.224;6.554;2022-10-16T16:54:05;10.93;;;3.27;;
72895;SDS011;61036;53.224;6.554;2022-10-16T16:56:33;11.17;;;3.40;;
72895;SDS011;61036;53.224;6.554;2022-10-16T16:58:59;11.60;;;3.67;;